Time;durP1;ratioP1;P1;durP2;ratioP2;P2;SDS_P1;SDS_P2;PMS_P1;PMS_P2;Temp;Humidity;BMP_temperature;BMP_pressure;BME280_temperature;BME280_humidity;BME280_pressure;Samples;Min_cycle;Max_cycle;Signal;HPM_P1;HPM_P2
2022/12/19 00:01:36;;;;;;;;;;;0.90;99.90;;;;;;4942653;28;1041;-60
2022/12/19 00:04:03;;;;;;;;;;;0.80;99.90;;;;;;4942469;28;1844;-60
2022/12/19 00:06:29;;;;;;;;;;;1.10;99.90;;;;;;4941060;29;1204;-60
2022/12/19 00:08:57;;;;;;;;;;;0.90;99.90;;;;;;4941481;29;993;-60
2022/12/19 00:11:23;;;;;;;;;;;1.50;99.90;;;;;;4941658;29;1021;-60
2022/12/19 00:13:49;;;;;;;;;;;1.30;99.90;;;;;;4941226;28;1077;-60
2022/12/19 00:16:17;;;;;;;;;;;0.90;99.90;;;;;;4941385;29;1911;-60
2022/12/19 00:18:43;;;;;;;;;;;1.40;99.90;;;;;;4924960;29;1038;-60
2022/12/19 00:21:10;;;;;;;;;;;1.10;99.90;;;;;;4940350;28;1092;-60
2022/12/19 00:23:36;;;;;;;;;;;1.10;99.90;;;;;;4941824;28;1034;-60
2022/12/19 00:26:12;;;;;;;;;;;1.40;99.90;;;;;;4940812;29;918;-60
2022/12/19 00:28:38;;;;;;;;;;;1.00;99.90;;;;;;4941504;29;1048;-60
2022/12/19 00:31:04;;;;;;;;;;;0.70;99.90;;;;;;4941567;28;1033;-60
2022/12/19 00:33:29;;;;;;;;;;;0.80;99.90;;;;;;4940886;29;961;-60
2022/12/19 00:35:57;;;;;;;;;;;1.20;99.90;;;;;;4941308;29;1983;-60
2022/12/19 00:38:22;;;;;;;;;;;1.10;99.90;;;;;;4924860;29;1539;-60
2022/12/19 00:40:48;;;;;;;;;;;1.20;99.90;;;;;;4923388;29;1019;-60
2022/12/19 00:43:14;;;;;;;;;;;1.30;99.90;;;;;;4940707;29;1191;-60
2022/12/19 00:45:40;;;;;;;;;;;1.40;99.90;;;;;;4924002;29;1098;-60
2022/12/19 00:48:06;;;;;;;;;;;0.90;99.90;;;;;;4940486;28;1006;-60
2022/12/19 00:50:31;;;;;;;;;;;1.20;99.90;;;;;;4923435;29;1026;-60
2022/12/19 00:52:57;;;;;;;;;;;0.90;99.90;;;;;;4923534;29;1458;-60
2022/12/19 00:55:23;;;;;;;;;;;1.30;99.90;;;;;;4940787;29;1977;-60
2022/12/19 00:57:48;;;;;;;;;;;1.40;99.90;;;;;;4923757;29;1057;-60
2022/12/19 01:00:15;;;;;;;;;;;1.50;99.90;;;;;;4941065;28;1021;-60
2022/12/19 01:02:40;;;;;;;;;;;1.00;99.90;;;;;;4941748;29;1666;-60
2022/12/19 01:05:06;;;;;;;;;;;1.50;99.90;;;;;;4941535;29;1057;-60
2022/12/19 01:07:32;;;;;;;;;;;1.10;99.90;;;;;;4940028;28;1116;-60
2022/12/19 01:09:59;;;;;;;;;;;1.20;99.90;;;;;;4923640;29;998;-60
2022/12/19 01:12:45;;;;;;;;;;;1.20;99.90;;;;;;4923319;28;1029;-60
2022/12/19 01:15:13;;;;;;;;;;;1.30;99.90;;;;;;4940781;28;1915;-60
2022/12/19 01:17:38;;;;;;;;;;;1.40;99.90;;;;;;4923821;29;1343;-60
2022/12/19 01:20:04;;;;;;;;;;;1.30;99.90;;;;;;4940337;29;1224;-60
2022/12/19 01:22:30;;;;;;;;;;;1.30;99.90;;;;;;4940197;29;989;-60
2022/12/19 01:24:55;;;;;;;;;;;1.40;99.90;;;;;;4941054;28;1002;-60
2022/12/19 01:27:21;;;;;;;;;;;1.50;99.90;;;;;;4931092;29;2037;-60
2022/12/19 01:29:47;;;;;;;;;;;1.40;99.90;;;;;;4939562;29;1021;-60
2022/12/19 01:32:12;;;;;;;;;;;1.10;99.90;;;;;;4941226;28;1120;-60
2022/12/19 01:34:38;;;;;;;;;;;1.40;99.90;;;;;;4911413;29;898;-60
2022/12/19 01:37:04;;;;;;;;;;;1.80;99.90;;;;;;4944440;29;1899;-60
2022/12/19 01:39:29;;;;;;;;;;;1.60;99.90;;;;;;4944522;28;994;-60
2022/12/19 01:41:56;;;;;;;;;;;1.90;99.90;;;;;;4947343;28;1061;-60
2022/12/19 01:44:22;;;;;;;;;;;1.50;99.90;;;;;;4948647;29;1069;-60
2022/12/19 01:46:50;;;;;;;;;;;1.70;99.90;;;;;;4946246;29;1188;-60
2022/12/19 01:49:23;;;;;;;;;;;1.70;99.90;;;;;;4943413;29;953;-60
2022/12/19 01:51:51;;;;;;;;;;;1.50;99.90;;;;;;4945328;28;1224;-60
2022/12/19 01:54:20;;;;;;;;;;;1.60;99.90;;;;;;4944608;29;957;-60
2022/12/19 01:56:49;;;;;;;;;;;1.90;99.90;;;;;;4950088;29;1911;-60
2022/12/19 01:59:18;;;;;;;;;;;1.70;99.90;;;;;;4927778;29;1098;-60
2022/12/19 02:01:44;;;;;;;;;;;1.60;99.90;;;;;;4944464;29;974;-60
2022/12/19 02:04:10;;;;;;;;;;;1.90;99.90;;;;;;4943917;28;1911;-60
2022/12/19 02:06:38;;;;;;;;;;;1.80;99.90;;;;;;4911143;29;1118;-60
2022/12/19 02:09:03;;;;;;;;;;;1.70;99.90;;;;;;4926393;29;1184;-60
2022/12/19 02:11:29;;;;;;;;;;;1.50;99.90;;;;;;4942640;29;990;-60
2022/12/19 02:13:55;;;;;;;;;;;1.80;99.90;;;;;;4943669;29;1022;-60
2022/12/19 02:16:22;;;;;;;;;;;1.80;99.90;;;;;;4927102;29;1960;-60
2022/12/19 02:18:55;;;;;;;;;;;1.70;99.90;;;;;;4925780;29;1145;-60
2022/12/19 02:21:23;;;;;;;;;;;1.80;99.90;;;;;;4927157;29;1199;-60
2022/12/19 02:23:50;;;;;;;;;;;1.60;99.90;;;;;;4934778;29;1144;-60
2022/12/19 02:26:18;;;;;;;;;;;1.60;99.90;;;;;;4943350;28;1018;-60
2022/12/19 02:28:45;;;;;;;;;;;1.60;99.90;;;;;;4944145;29;1182;-60
2022/12/19 02:31:15;;;;;;;;;;;1.80;99.90;;;;;;4926505;29;1496;-60
2022/12/19 02:33:44;;;;;;;;;;;2.20;99.90;;;;;;4925740;29;1069;-60
2022/12/19 02:36:29;;;;;;;;;;;1.70;99.90;;;;;;4926879;29;1986;-60
2022/12/19 02:38:58;;;;;;;;;;;1.70;99.90;;;;;;4926236;29;1515;-60
2022/12/19 02:41:41;;;;;;;;;;;1.80;99.90;;;;;;4926189;29;1029;-60
2022/12/19 02:44:11;;;;;;;;;;;1.70;99.90;;;;;;4925495;29;1072;-60
2022/12/19 02:46:37;;;;;;;;;;;1.90;99.90;;;;;;4949937;29;1014;-60
2022/12/19 02:49:03;;;;;;;;;;;1.80;99.90;;;;;;4926252;29;1016;-60
2022/12/19 02:51:29;;;;;;;;;;;1.90;99.90;;;;;;4926260;29;1259;-60
2022/12/19 02:53:55;;;;;;;;;;;1.80;99.90;;;;;;4909208;29;1097;-60
2022/12/19 02:56:24;;;;;;;;;;;1.90;99.90;;;;;;4925745;29;1915;-60
2022/12/19 02:58:52;;;;;;;;;;;1.90;99.90;;;;;;4911042;29;1038;-60
2022/12/19 03:01:38;;;;;;;;;;;2.00;99.90;;;;;;4925561;29;1021;-60
2022/12/19 03:04:13;;;;;;;;;;;1.70;99.90;;;;;;4925547;29;1868;-60
2022/12/19 03:06:49;;;;;;;;;;;1.60;99.90;;;;;;4924589;29;1113;-60
2022/12/19 03:09:19;;;;;;;;;;;1.70;99.90;;;;;;4925643;29;1104;-60
2022/12/19 03:11:48;;;;;;;;;;;1.60;99.90;;;;;;4948859;28;1225;-60
2022/12/19 03:14:17;;;;;;;;;;;2.30;99.90;;;;;;4949249;29;1000;-60
2022/12/19 03:16:43;;;;;;;;;;;1.80;99.90;;;;;;4926020;29;1982;-60
2022/12/19 03:19:10;;;;;;;;;;;1.80;99.90;;;;;;4942659;28;981;-60
2022/12/19 03:21:38;;;;;;;;;;;1.60;99.90;;;;;;4941489;29;1017;-60
2022/12/19 03:24:05;;;;;;;;;;;1.80;99.90;;;;;;4925816;29;1097;-60
2022/12/19 03:26:35;;;;;;;;;;;1.60;99.90;;;;;;4941857;29;1096;-60
2022/12/19 03:29:06;;;;;;;;;;;1.80;99.90;;;;;;4942081;28;1061;-60
2022/12/19 03:31:33;;;;;;;;;;;2.10;99.90;;;;;;4942658;29;1100;-60
2022/12/19 03:34:02;;;;;;;;;;;2.10;99.90;;;;;;4924461;29;1052;-60
2022/12/19 03:36:30;;;;;;;;;;;1.70;99.90;;;;;;4943793;28;1939;-60
2022/12/19 03:38:56;;;;;;;;;;;1.70;99.90;;;;;;4942972;29;1526;-60
2022/12/19 03:43:07;;;;;;;;;;;1.80;99.90;;;;;;4942096;28;1005;-60
2022/12/19 03:44:10;;;;;;;;;;;2.20;99.90;;;;;;4942818;29;1094;-60
2022/12/19 03:46:39;;;;;;;;;;;2.00;99.90;;;;;;4942277;28;1077;-60
2022/12/19 03:49:05;;;;;;;;;;;1.60;99.90;;;;;;4941755;29;1080;-60
2022/12/19 03:51:42;;;;;;;;;;;2.00;99.90;;;;;;4943823;28;1304;-60
2022/12/19 03:54:13;;;;;;;;;;;1.90;99.90;;;;;;4941818;28;1121;-60
2022/12/19 03:56:41;;;;;;;;;;;1.60;99.90;;;;;;4942317;28;1930;-60
2022/12/19 03:59:09;;;;;;;;;;;1.70;99.90;;;;;;4941856;29;1009;-60
2022/12/19 04:01:35;;;;;;;;;;;2.00;99.90;;;;;;4941441;29;1045;-60
2022/12/19 04:04:02;;;;;;;;;;;2.10;99.90;;;;;;4941420;28;1772;-60
2022/12/19 04:06:29;;;;;;;;;;;1.90;99.90;;;;;;4942304;29;1194;-60
2022/12/19 04:08:56;;;;;;;;;;;1.90;99.90;;;;;;4941306;28;1088;-60
2022/12/19 04:11:22;;;;;;;;;;;2.20;99.90;;;;;;4941943;28;1068;-60
2022/12/19 04:13:52;;;;;;;;;;;2.00;99.90;;;;;;4941614;29;1089;-60
2022/12/19 04:16:23;;;;;;;;;;;2.00;99.90;;;;;;4942096;29;1977;-60
2022/12/19 04:18:51;;;;;;;;;;;1.80;99.90;;;;;;4941000;29;1100;-60
2022/12/19 04:21:22;;;;;;;;;;;2.00;99.90;;;;;;4942591;28;1037;-60
2022/12/19 04:23:51;;;;;;;;;;;1.90;99.90;;;;;;4941262;29;978;-60
2022/12/19 04:26:18;;;;;;;;;;;1.80;99.90;;;;;;4925235;29;1026;-60
2022/12/19 04:28:44;;;;;;;;;;;2.30;99.90;;;;;;4941361;29;1026;-60
2022/12/19 04:31:12;;;;;;;;;;;1.80;99.90;;;;;;4940616;28;1000;-60
2022/12/19 04:33:37;;;;;;;;;;;2.10;99.90;;;;;;4941548;29;973;-60
2022/12/19 04:36:03;;;;;;;;;;;2.30;99.90;;;;;;4942030;29;1911;-59
2022/12/19 04:38:29;;;;;;;;;;;1.90;99.90;;;;;;4941105;28;1475;-60
2022/12/19 04:40:55;;;;;;;;;;;1.80;99.90;;;;;;4940153;29;1005;-60
2022/12/19 04:43:21;;;;;;;;;;;2.30;99.90;;;;;;4940878;29;1096;-60
2022/12/19 04:45:46;;;;;;;;;;;2.30;99.90;;;;;;4940779;29;1218;-60
2022/12/19 04:48:12;;;;;;;;;;;2.10;99.90;;;;;;4941088;29;1094;-60
2022/12/19 04:50:38;;;;;;;;;;;1.80;99.90;;;;;;4940924;29;1049;-60
2022/12/19 04:53:04;;;;;;;;;;;2.10;99.90;;;;;;4940910;28;1479;-60
2022/12/19 04:55:30;;;;;;;;;;;2.20;99.90;;;;;;4941749;28;1969;-60
2022/12/19 04:57:55;;;;;;;;;;;2.00;99.90;;;;;;4941099;29;1005;-60
2022/12/19 05:00:21;;;;;;;;;;;2.30;99.90;;;;;;4940228;29;1013;-60
2022/12/19 05:02:47;;;;;;;;;;;2.10;99.90;;;;;;4941085;29;1840;-60
2022/12/19 05:05:12;;;;;;;;;;;2.30;99.90;;;;;;4940738;28;1253;-60
2022/12/19 05:07:39;;;;;;;;;;;1.90;99.90;;;;;;4939705;28;989;-60
2022/12/19 05:10:05;;;;;;;;;;;2.20;99.90;;;;;;4940298;29;974;-60
2022/12/19 05:12:31;;;;;;;;;;;2.30;99.90;;;;;;4941017;29;997;-60
2022/12/19 05:14:56;;;;;;;;;;;2.30;99.90;;;;;;4940334;28;1017;-60
2022/12/19 05:17:22;;;;;;;;;;;2.70;99.90;;;;;;4940723;29;1973;-60
2022/12/19 05:19:47;;;;;;;;;;;2.10;99.90;;;;;;4923502;29;1073;-60
2022/12/19 05:22:13;;;;;;;;;;;2.40;99.90;;;;;;4940026;28;1045;-60
2022/12/19 05:24:39;;;;;;;;;;;2.00;99.90;;;;;;4940110;29;958;-60
2022/12/19 05:27:04;;;;;;;;;;;2.30;99.90;;;;;;4939661;29;1120;-60
2022/12/19 05:29:30;;;;;;;;;;;2.20;99.90;;;;;;4940329;29;989;-60
2022/12/19 05:31:56;;;;;;;;;;;2.20;99.90;;;;;;4940418;29;1008;-60
2022/12/19 05:34:22;;;;;;;;;;;2.40;99.90;;;;;;4939775;29;1033;-60
2022/12/19 05:36:48;;;;;;;;;;;2.50;99.90;;;;;;4947153;28;2003;-60
2022/12/19 05:39:14;;;;;;;;;;;2.50;99.90;;;;;;4940612;29;1456;-60
2022/12/19 05:41:39;;;;;;;;;;;2.10;99.90;;;;;;4940046;28;1007;-60
2022/12/19 05:44:05;;;;;;;;;;;2.70;99.90;;;;;;4942568;29;1089;-60
2022/12/19 05:46:30;;;;;;;;;;;2.40;99.90;;;;;;4943249;29;1065;-60
2022/12/19 05:48:56;;;;;;;;;;;2.20;99.90;;;;;;4942546;28;1069;-60
2022/12/19 05:51:22;;;;;;;;;;;2.30;99.90;;;;;;4944046;28;1267;-60
2022/12/19 05:53:47;;;;;;;;;;;2.30;99.90;;;;;;4943757;28;1081;-60
2022/12/19 05:56:15;;;;;;;;;;;2.80;99.90;;;;;;4942249;29;1914;-60
2022/12/19 05:58:41;;;;;;;;;;;2.60;99.90;;;;;;4943558;28;1065;-60
2022/12/19 06:01:08;;;;;;;;;;;2.60;99.90;;;;;;4943470;29;1069;-60
2022/12/19 06:03:34;;;;;;;;;;;2.60;99.90;;;;;;4942716;29;1804;-60
2022/12/19 06:06:01;;;;;;;;;;;2.40;99.90;;;;;;4945927;28;1424;-60
2022/12/19 06:08:27;;;;;;;;;;;2.60;99.90;;;;;;4927591;29;1272;-60
2022/12/19 06:10:52;;;;;;;;;;;2.40;99.90;;;;;;4927866;29;1061;-60
2022/12/19 06:13:18;;;;;;;;;;;2.80;99.90;;;;;;4927965;29;1306;-60
2022/12/19 06:15:43;;;;;;;;;;;2.40;99.90;;;;;;4926795;29;1962;-60
2022/12/19 06:18:09;;;;;;;;;;;2.60;99.90;;;;;;4928546;29;1140;-60
2022/12/19 06:20:35;;;;;;;;;;;2.40;99.90;;;;;;4930842;29;1128;-60
2022/12/19 06:23:01;;;;;;;;;;;2.60;99.90;;;;;;4926043;29;1072;-60
2022/12/19 06:25:26;;;;;;;;;;;2.60;99.90;;;;;;4924775;29;1413;-60
2022/12/19 06:27:52;;;;;;;;;;;2.80;99.90;;;;;;4924270;29;981;-60
2022/12/19 06:30:17;;;;;;;;;;;2.60;99.90;;;;;;4924372;29;1297;-60
2022/12/19 06:32:43;;;;;;;;;;;2.60;99.90;;;;;;4923631;29;1081;-60
2022/12/19 06:35:09;;;;;;;;;;;2.70;99.90;;;;;;4924542;29;1980;-60
2022/12/19 06:37:34;;;;;;;;;;;2.60;99.90;;;;;;4924445;29;1305;-60
2022/12/19 06:40:00;;;;;;;;;;;2.60;99.90;;;;;;4924312;29;969;-60
2022/12/19 06:42:26;;;;;;;;;;;2.80;99.90;;;;;;4923627;29;1037;-61
2022/12/19 06:44:52;;;;;;;;;;;2.70;99.90;;;;;;4923831;29;1117;-60
2022/12/19 06:47:18;;;;;;;;;;;3.00;99.90;;;;;;4924053;29;1105;-60
2022/12/19 06:49:44;;;;;;;;;;;2.70;99.90;;;;;;4924313;29;997;-60
2022/12/19 06:52:09;;;;;;;;;;;2.50;99.90;;;;;;4919376;29;1247;-61
2022/12/19 06:54:35;;;;;;;;;;;2.60;99.90;;;;;;4923599;29;1085;-59
2022/12/19 06:57:01;;;;;;;;;;;3.00;99.90;;;;;;4923618;29;1914;-58
2022/12/19 06:59:27;;;;;;;;;;;2.70;99.90;;;;;;4923425;29;1033;-58
2022/12/19 07:01:56;;;;;;;;;;;2.70;99.90;;;;;;4923628;29;994;-58
2022/12/19 07:04:37;;;;;;;;;;;2.90;99.90;;;;;;4925388;29;1974;-58
2022/12/19 07:07:03;;;;;;;;;;;2.60;99.90;;;;;;4940040;29;1338;-59
2022/12/19 07:09:30;;;;;;;;;;;2.80;99.90;;;;;;4944682;28;1124;-58
2022/12/19 07:11:55;;;;;;;;;;;2.80;99.90;;;;;;4943662;28;970;-59
2022/12/19 07:14:21;;;;;;;;;;;3.10;99.90;;;;;;4942592;28;1053;-58
2022/12/19 07:16:48;;;;;;;;;;;3.00;99.90;;;;;;4942166;28;1977;-58
2022/12/19 07:19:14;;;;;;;;;;;3.50;99.90;;;;;;4943263;29;1014;-59
2022/12/19 07:21:40;;;;;;;;;;;3.10;99.90;;;;;;4941886;29;985;-59
2022/12/19 07:24:06;;;;;;;;;;;3.00;99.90;;;;;;4941768;29;1064;-59
2022/12/19 07:26:32;;;;;;;;;;;3.00;99.90;;;;;;4942520;28;1025;-59
2022/12/19 07:28:58;;;;;;;;;;;3.30;99.90;;;;;;4942022;29;1053;-59
2022/12/19 07:31:23;;;;;;;;;;;3.40;99.90;;;;;;4941538;29;1033;-59
2022/12/19 07:33:49;;;;;;;;;;;3.30;99.90;;;;;;4941386;29;1108;-59
2022/12/19 07:36:15;;;;;;;;;;;3.30;99.90;;;;;;4943785;28;1972;-59
2022/12/19 07:38:40;;;;;;;;;;;3.20;99.90;;;;;;4942487;29;1541;-59
2022/12/19 07:41:06;;;;;;;;;;;3.30;99.90;;;;;;4941264;29;1017;-59
2022/12/19 07:43:32;;;;;;;;;;;3.80;99.90;;;;;;4942258;28;1072;-59
2022/12/19 07:45:57;;;;;;;;;;;3.30;99.90;;;;;;4943995;29;1064;-59
2022/12/19 07:48:23;;;;;;;;;;;3.50;99.90;;;;;;4941210;29;1124;-59
2022/12/19 07:50:49;;;;;;;;;;;3.40;99.90;;;;;;4944825;28;1351;-61
2022/12/19 07:53:15;;;;;;;;;;;3.70;99.90;;;;;;4943763;28;1318;-61
2022/12/19 07:55:41;;;;;;;;;;;3.60;99.90;;;;;;4942092;29;1915;-61
2022/12/19 07:58:09;;;;;;;;;;;3.70;99.90;;;;;;4943272;29;1052;-61
2022/12/19 08:00:35;;;;;;;;;;;3.70;99.90;;;;;;4942408;29;1073;-61
2022/12/19 08:03:00;;;;;;;;;;;3.80;99.90;;;;;;4941961;28;1825;-61
2022/12/19 08:05:26;;;;;;;;;;;4.00;99.90;;;;;;4941953;29;1091;-61
2022/12/19 08:07:52;;;;;;;;;;;3.80;99.90;;;;;;4941233;29;1093;-61
2022/12/19 08:10:18;;;;;;;;;;;3.70;99.90;;;;;;4941287;28;998;-61
2022/12/19 08:12:44;;;;;;;;;;;4.10;99.90;;;;;;4941810;29;1086;-61
2022/12/19 08:15:10;;;;;;;;;;;3.90;99.90;;;;;;4941260;29;1910;-61
2022/12/19 08:17:37;;;;;;;;;;;4.20;99.90;;;;;;4941032;29;1073;-61
2022/12/19 08:20:03;;;;;;;;;;;4.00;99.90;;;;;;4944204;29;973;-61
2022/12/19 08:22:30;;;;;;;;;;;3.90;99.90;;;;;;4942060;28;3253;-61
2022/12/19 08:24:56;;;;;;;;;;;4.10;99.90;;;;;;4925678;28;3052;-61
2022/12/19 08:27:22;;;;;;;;;;;4.30;99.90;;;;;;4943090;28;1147;-61
2022/12/19 08:29:48;;;;;;;;;;;4.10;99.90;;;;;;4942329;28;3026;-61
2022/12/19 08:32:14;;;;;;;;;;;4.20;99.90;;;;;;4941043;28;1052;-61
2022/12/19 08:34:40;;;;;;;;;;;4.10;99.90;;;;;;4942188;28;1134;-61
2022/12/19 08:37:05;;;;;;;;;;;4.30;99.90;;;;;;4941589;28;1978;-61
2022/12/19 08:39:31;;;;;;;;;;;4.10;99.90;;;;;;4941563;28;1214;-61
2022/12/19 08:41:56;;;;;;;;;;;4.40;99.90;;;;;;4941706;28;2712;-61
2022/12/19 08:44:22;;;;;;;;;;;4.30;99.90;;;;;;4941418;28;1319;-61
2022/12/19 08:46:48;;;;;;;;;;;4.40;99.90;;;;;;4943965;28;1266;-61
2022/12/19 08:49:13;;;;;;;;;;;4.30;99.90;;;;;;4943035;28;1167;-61
2022/12/19 08:51:39;;;;;;;;;;;4.20;99.90;;;;;;4943381;28;1137;-62
2022/12/19 08:54:05;;;;;;;;;;;4.50;99.90;;;;;;4940592;28;1173;-61
2022/12/19 08:56:30;;;;;;;;;;;4.70;99.90;;;;;;4941050;28;1973;-62
2022/12/19 08:58:56;;;;;;;;;;;4.60;99.90;;;;;;4939966;28;1258;-62
2022/12/19 09:01:22;;;;;;;;;;;4.80;99.90;;;;;;4923679;28;1151;-62
2022/12/19 09:03:48;;;;;;;;;;;4.40;99.90;;;;;;4940608;28;1846;-62
2022/12/19 09:06:14;;;;;;;;;;;4.50;99.90;;;;;;4924627;28;1248;-62
2022/12/19 09:08:40;;;;;;;;;;;4.50;99.90;;;;;;4941782;28;1351;-62
2022/12/19 09:11:06;;;;;;;;;;;4.70;99.90;;;;;;4940594;28;1169;-62
2022/12/19 09:13:32;;;;;;;;;;;4.90;99.90;;;;;;4940569;28;1090;-62
2022/12/19 09:15:58;;;;;;;;;;;4.60;99.90;;;;;;4923758;28;1986;-62
2022/12/19 09:18:24;;;;;;;;;;;4.60;99.90;;;;;;4942391;28;2030;-62
2022/12/19 09:20:52;;;;;;;;;;;4.60;99.90;;;;;;4940904;28;1146;-62
2022/12/19 09:23:17;;;;;;;;;;;4.90;99.90;;;;;;4941211;28;993;-62
2022/12/19 09:25:43;;;;;;;;;;;4.70;99.90;;;;;;4942661;28;1039;-62
2022/12/19 09:28:09;;;;;;;;;;;4.70;99.90;;;;;;4939850;28;1139;-62
2022/12/19 09:30:34;;;;;;;;;;;4.80;99.90;;;;;;4941480;28;1042;-62
2022/12/19 09:33:00;;;;;;;;;;;4.80;99.90;;;;;;4940965;28;1307;-62
2022/12/19 09:35:26;;;;;;;;;;;4.90;99.90;;;;;;4940899;28;1970;-62
2022/12/19 09:37:51;;;;;;;;;;;5.10;99.90;;;;;;4941317;28;1365;-62
2022/12/19 09:40:17;;;;;;;;;;;5.20;99.90;;;;;;4940304;28;1229;-62
2022/12/19 09:42:51;;;;;;;;;;;5.30;99.90;;;;;;4925064;29;1373;-62
2022/12/19 09:45:20;;;;;;;;;;;5.10;99.90;;;;;;4943375;28;1208;-60
2022/12/19 09:47:47;;;;;;;;;;;5.00;99.90;;;;;;4945215;28;1316;-60
2022/12/19 09:50:25;;;;;;;;;;;5.20;99.90;;;;;;4941739;28;1062;-60
2022/12/19 09:52:56;;;;;;;;;;;5.10;99.90;;;;;;4924424;29;1436;-60
2022/12/19 09:55:27;;;;;;;;;;;5.20;99.90;;;;;;4944940;29;1919;-60
2022/12/19 09:58:04;;;;;;;;;;;5.30;99.90;;;;;;4944483;28;991;-62
2022/12/19 10:00:36;;;;;;;;;;;5.40;99.90;;;;;;4927604;29;1357;-62
2022/12/19 10:03:04;;;;;;;;;;;5.40;99.90;;;;;;4927520;29;1519;-62
2022/12/19 10:05:39;;;;;;;;;;;5.80;99.90;;;;;;4944804;28;1310;-62
2022/12/19 10:08:14;;;;;;;;;;;5.40;99.90;;;;;;4944550;29;969;-62
2022/12/19 10:10:49;;;;;;;;;;;5.20;99.90;;;;;;4943594;28;966;-62
2022/12/19 10:13:15;;;;;;;;;;;5.60;99.90;;;;;;4943127;29;1041;-62
2022/12/19 10:16:04;;;;;;;;;;;5.70;99.90;;;;;;4943042;28;1911;-62
2022/12/19 10:18:35;;;;;;;;;;;5.60;99.90;;;;;;4943942;29;1102;-62
2022/12/19 10:21:07;;;;;;;;;;;5.70;99.90;;;;;;4943634;29;1037;-62
2022/12/19 10:23:42;;;;;;;;;;;5.60;99.90;;;;;;4942924;28;1096;-62
2022/12/19 10:26:24;;;;;;;;;;;5.70;99.90;;;;;;4944568;29;970;-62
2022/12/19 10:28:51;;;;;;;;;;;5.70;99.90;;;;;;4943288;29;1025;-62
2022/12/19 10:31:21;;;;;;;;;;;5.70;99.90;;;;;;4942868;28;1016;-62
2022/12/19 10:33:52;;;;;;;;;;;5.60;99.90;;;;;;4944588;28;1040;-62
2022/12/19 10:36:17;;;;;;;;;;;5.60;99.90;;;;;;4943838;29;1974;-62
2022/12/19 10:39:02;;;;;;;;;;;5.80;99.90;;;;;;4926959;29;1528;-62
2022/12/19 10:41:29;;;;;;;;;;;5.90;99.90;;;;;;4943252;28;1148;-62
2022/12/19 10:43:54;;;;;;;;;;;6.00;99.90;;;;;;4942933;29;1013;-63
2022/12/19 10:46:28;;;;;;;;;;;6.00;99.90;;;;;;4943531;28;1186;-63
2022/12/19 10:48:53;;;;;;;;;;;5.90;99.90;;;;;;4943723;28;1065;-63
2022/12/19 10:51:27;;;;;;;;;;;6.00;99.90;;;;;;4943458;28;1275;-63
2022/12/19 10:53:54;;;;;;;;;;;5.90;99.90;;;;;;4943301;29;1028;-63
2022/12/19 10:56:21;;;;;;;;;;;6.00;99.90;;;;;;4943776;29;2005;-63
2022/12/19 10:58:49;;;;;;;;;;;5.90;99.90;;;;;;4942099;28;1137;-63
2022/12/19 11:01:23;;;;;;;;;;;6.00;99.90;;;;;;4943826;29;934;-63
2022/12/19 11:03:51;;;;;;;;;;;6.00;99.90;;;;;;4943338;29;1500;-63
2022/12/19 11:06:35;;;;;;;;;;;6.00;99.90;;;;;;4942210;29;1428;-63
2022/12/19 11:09:16;;;;;;;;;;;6.00;99.90;;;;;;4942119;29;1160;-63
2022/12/19 11:11:42;;;;;;;;;;;6.10;99.90;;;;;;4943581;29;1324;-63
2022/12/19 11:14:21;;;;;;;;;;;6.10;99.90;;;;;;4943215;29;1045;-63
2022/12/19 11:16:47;;;;;;;;;;;6.10;99.90;;;;;;4943484;28;1934;-62
2022/12/19 11:19:20;;;;;;;;;;;6.10;99.90;;;;;;4941393;29;982;-61
2022/12/19 11:21:46;;;;;;;;;;;6.20;99.90;;;;;;4942234;29;1009;-61
2022/12/19 11:24:17;;;;;;;;;;;6.20;99.90;;;;;;4943710;28;992;-61
2022/12/19 11:26:43;;;;;;;;;;;;;;;;;;4942249;29;1005;-61
2022/12/19 11:29:16;;;;;;;;;;;6.40;99.90;;;;;;4942009;29;1002;-62
2022/12/19 11:31:43;;;;;;;;;;;6.30;99.90;;;;;;4941891;29;1026;-61
2022/12/19 11:34:12;;;;;;;;;;;6.30;99.90;;;;;;4942546;28;1022;-61
2022/12/19 11:36:42;;;;;;;;;;;6.30;99.90;;;;;;4942546;29;1978;-61
2022/12/19 11:39:14;;;;;;;;;;;6.30;99.90;;;;;;4942606;29;1498;-61
2022/12/19 11:41:43;;;;;;;;;;;6.20;99.90;;;;;;4940662;29;1194;-62
2022/12/19 11:44:26;;;;;;;;;;;6.20;99.90;;;;;;4943123;28;1265;-62
2022/12/19 11:46:57;;;;;;;;;;;6.20;99.90;;;;;;4941982;29;1021;-62
2022/12/19 11:49:27;;;;;;;;;;;6.30;99.90;;;;;;4924651;29;982;-62
2022/12/19 11:52:04;;;;;;;;;;;6.30;99.90;;;;;;4943128;28;3046;-62
2022/12/19 11:54:30;;;;;;;;;;;6.30;99.90;;;;;;4941198;29;1033;-62
2022/12/19 11:56:56;;;;;;;;;;;6.30;99.90;;;;;;4941678;29;1988;-62
2022/12/19 11:59:33;;;;;;;;;;;6.30;99.90;;;;;;4942245;29;1018;-62
2022/12/19 12:02:07;;;;;;;;;;;6.30;99.90;;;;;;4941803;29;1065;-61
2022/12/19 12:04:32;;;;;;;;;;;6.40;99.90;;;;;;4942467;29;1987;-61
2022/12/19 12:06:58;;;;;;;;;;;6.40;99.90;;;;;;4941314;29;1092;-61
2022/12/19 12:09:25;;;;;;;;;;;6.50;99.90;;;;;;4941617;28;986;-62
2022/12/19 12:11:55;;;;;;;;;;;6.40;99.90;;;;;;4941478;29;1214;-62
2022/12/19 12:14:25;;;;;;;;;;;6.50;99.90;;;;;;4942221;28;1003;-62
2022/12/19 12:16:51;;;;;;;;;;;6.50;99.90;;;;;;4941135;29;1986;-62
2022/12/19 12:19:26;;;;;;;;;;;6.50;99.90;;;;;;4941420;28;894;-62
2022/12/19 12:22:05;;;;;;;;;;;6.50;99.90;;;;;;4941750;29;1080;-61
2022/12/19 12:24:37;;;;;;;;;;;6.60;99.90;;;;;;4941954;29;977;-62
2022/12/19 12:27:03;;;;;;;;;;;6.60;99.90;;;;;;4941114;28;1071;-61
2022/12/19 12:29:31;;;;;;;;;;;6.70;99.90;;;;;;4940628;29;997;-62
2022/12/19 12:32:10;;;;;;;;;;;6.70;99.90;;;;;;4941202;29;1013;-62
2022/12/19 12:34:36;;;;;;;;;;;6.60;99.90;;;;;;4941297;29;1064;-62
2022/12/19 12:37:10;;;;;;;;;;;6.50;99.90;;;;;;4942177;28;1972;-62
2022/12/19 12:39:45;;;;;;;;;;;6.50;99.90;;;;;;4941305;29;989;-62
2022/12/19 12:42:10;;;;;;;;;;;6.60;99.90;;;;;;4940856;29;1029;-62
2022/12/19 12:44:38;;;;;;;;;;;6.60;99.90;;;;;;4941733;28;994;-62
2022/12/19 12:47:08;;;;;;;;;;;6.60;99.90;;;;;;4941433;29;1074;-62
2022/12/19 12:49:37;;;;;;;;;;;6.70;99.90;;;;;;4940285;29;1238;-63
2022/12/19 12:52:05;;;;;;;;;;;6.70;99.90;;;;;;4924583;29;1295;-63
2022/12/19 12:54:33;;;;;;;;;;;6.70;99.90;;;;;;4924504;29;1022;-63
2022/12/19 12:56:59;;;;;;;;;;;6.70;99.90;;;;;;4941102;29;1907;-63
2022/12/19 12:59:26;;;;;;;;;;;6.70;99.90;;;;;;4940751;29;1006;-63
2022/12/19 13:01:54;;;;;;;;;;;6.70;99.90;;;;;;4940953;28;985;-63
2022/12/19 13:04:24;;;;;;;;;;;6.70;99.90;;;;;;4941751;28;1335;-61
2022/12/19 13:06:50;;;;;;;;;;;6.70;99.90;;;;;;4941072;29;1252;-61
2022/12/19 13:09:20;;;;;;;;;;;6.70;99.90;;;;;;4940714;29;1018;-61
2022/12/19 13:14:32;;;;;;;;;;;6.60;99.90;;;;;;4940596;29;1081;-61
2022/12/19 13:16:59;;;;;;;;;;;6.60;99.90;;;;;;4940474;29;1981;-62
2022/12/19 13:19:26;;;;;;;;;;;6.50;99.90;;;;;;4946151;28;1056;-61
2022/12/19 13:21:59;;;;;;;;;;;6.50;99.90;;;;;;4922613;29;1104;-61
2022/12/19 13:24:24;;;;;;;;;;;6.40;99.90;;;;;;4940626;29;1104;-61
2022/12/19 13:26:51;;;;;;;;;;;6.40;99.90;;;;;;4938937;29;1136;-61
2022/12/19 13:29:26;;;;;;;;;;;6.50;99.90;;;;;;4943883;28;990;-61
2022/12/19 13:32:13;;;;;;;;;;;6.50;99.90;;;;;;4945222;29;1061;-61
2022/12/19 13:34:49;;;;;;;;;;;6.50;99.90;;;;;;4943666;29;756;-61
2022/12/19 13:37:17;;;;;;;;;;;6.50;99.90;;;;;;4928334;29;1918;-61
2022/12/19 13:39:59;;;;;;;;;;;6.60;99.90;;;;;;4943028;28;973;-61
2022/12/19 13:45:20;;;;;;;;;;;6.80;99.90;;;;;;4933764;29;1065;-61
2022/12/19 13:47:48;;;;;;;;;;;6.80;99.90;;;;;;4946029;28;1153;-61
2022/12/19 13:50:20;;;;;;;;;;;6.80;99.90;;;;;;4943973;29;1028;-62
2022/12/19 13:52:47;;;;;;;;;;;6.80;99.90;;;;;;4945412;28;3410;-62
2022/12/19 13:55:13;;;;;;;;;;;6.80;99.90;;;;;;4943903;28;1040;-61
2022/12/19 13:57:39;;;;;;;;;;;6.90;99.90;;;;;;4943812;29;1997;-61
2022/12/19 14:00:07;;;;;;;;;;;6.90;99.90;;;;;;4944290;28;3234;-62
2022/12/19 14:02:38;;;;;;;;;;;6.90;99.90;;;;;;4943168;28;1595;-61
2022/12/19 14:05:03;;;;;;;;;;;6.90;99.90;;;;;;4944078;28;1053;-62
2022/12/19 14:07:36;;;;;;;;;;;7.00;99.90;;;;;;4944068;28;3516;-62
2022/12/19 14:10:05;;;;;;;;;;;7.00;99.90;;;;;;4943788;28;1315;-62
2022/12/19 14:15:26;;;;;;;;;;;7.00;99.90;;;;;;4942736;28;3128;-61
2022/12/19 14:17:52;;;;;;;;;;;7.00;99.90;;;;;;4944929;28;3313;-61
2022/12/19 14:20:19;;;;;;;;;;;7.00;99.90;;;;;;4943620;28;1192;-62
2022/12/19 14:22:45;;;;;;;;;;;7.00;99.90;;;;;;4943913;28;3078;-61
2022/12/19 14:25:10;;;;;;;;;;;7.10;99.90;;;;;;4946839;28;1327;-62
2022/12/19 14:27:43;;;;;;;;;;;7.00;99.90;;;;;;4926344;28;1857;-62
2022/12/19 14:30:17;;;;;;;;;;;7.00;99.90;;;;;;4926569;28;1495;-61
2022/12/19 14:32:43;;;;;;;;;;;7.00;99.90;;;;;;4944407;28;1293;-62
2022/12/19 14:35:13;;;;;;;;;;;7.00;99.90;;;;;;4949192;29;3479;-61
2022/12/19 14:37:41;;;;;;;;;;;7.00;99.90;;;;;;4943207;29;1988;-62
2022/12/19 14:40:19;;;;;;;;;;;7.00;99.90;;;;;;4958491;28;1137;-62
2022/12/19 14:45:38;;;;;;;;;;;7.00;99.90;;;;;;4948084;28;1410;-62
2022/12/19 14:48:23;;;;;;;;;;;7.10;99.90;;;;;;4951545;28;1131;-62
2022/12/19 14:50:49;;;;;;;;;;;7.10;99.90;;;;;;4954076;28;1308;-62
2022/12/19 14:53:16;;;;;;;;;;;7.00;99.90;;;;;;4928930;29;1716;-62
2022/12/19 14:55:45;;;;;;;;;;;7.00;99.90;;;;;;4953061;29;1910;-62
2022/12/19 14:58:17;;;;;;;;;;;7.00;99.90;;;;;;4962508;28;1220;-62
2022/12/19 15:00:46;;;;;;;;;;;7.10;99.90;;;;;;4972650;28;1174;-62
2022/12/19 15:03:17;;;;;;;;;;;7.10;99.90;;;;;;4966961;28;1250;-62